TimeEST,TemperatureF,Dew PointF,Humidity,Sea Level PressureIn,VisibilityMPH,Wind Direction,Wind SpeedMPH,Gust SpeedMPH,PrecipitationIn,Events,Conditions,WindDirDegrees,DateUTC
12:15 AM,38.7,37.2,95,29.92,10.0,Calm,Calm,-,N/A,,Clear,0,2012-12-19 05:15:00
12:35 AM,37.6,36.7,97,29.92,10.0,Calm,Calm,-,N/A,,Clear,0,2012-12-19 05:35:00
12:55 AM,37.8,36.5,95,29.91,10.0,Calm,Calm,-,N/A,,Clear,0,2012-12-19 05:55:00
1:15 AM,37.9,37.2,97,29.92,10.0,Calm,Calm,-,N/A,,Clear,0,2012-12-19 06:15:00
1:35 AM,37.6,36.9,97,29.93,10.0,Calm,Calm,-,N/A,,Clear,0,2012-12-19 06:35:00
1:55 AM,37.0,36.0,96,29.93,10.0,Calm,Calm,-,N/A,,Clear,0,2012-12-19 06:55:00
2:15 AM,37.6,36.1,95,29.94,10.0,South,3.5,-,N/A,,Clear,180,2012-12-19 07:15:00
2:35 AM,36.5,35.2,95,29.93,10.0,SSE,3.5,-,N/A,,Clear,160,2012-12-19 07:35:00
2:55 AM,37.4,34.9,91,29.93,10.0,South,3.5,-,N/A,,Clear,180,2012-12-19 07:55:00
3:15 AM,36.9,35.6,95,29.94,10.0,South,3.5,-,N/A,,Clear,180,2012-12-19 08:15:00
3:35 AM,36.5,35.1,95,29.94,10.0,South,3.5,-,N/A,,Clear,170,2012-12-19 08:35:00
3:55 AM,37.0,34.9,92,29.94,10.0,SSW,3.5,-,N/A,,Clear,200,2012-12-19 08:55:00
4:15 AM,35.6,34.9,97,29.94,10.0,South,3.5,-,N/A,,Clear,170,2012-12-19 09:15:00
4:35 AM,37.0,34.9,92,29.94,10.0,Calm,Calm,-,N/A,,Clear,0,2012-12-19 09:35:00
4:55 AM,36.3,34.0,91,29.95,10.0,Calm,Calm,-,N/A,,Clear,0,2012-12-19 09:55:00
5:15 AM,35.4,34.0,94,29.96,10.0,Calm,Calm,-,N/A,,Clear,0,2012-12-19 10:15:00
5:35 AM,36.0,34.0,93,29.96,10.0,Calm,Calm,-,N/A,,Clear,0,2012-12-19 10:35:00
5:55 AM,35.6,33.6,92,29.96,10.0,Calm,Calm,-,N/A,,Clear,0,2012-12-19 10:55:00
6:15 AM,34.3,33.1,95,29.98,10.0,Calm,Calm,-,N/A,,Clear,0,2012-12-19 11:15:00
6:35 AM,33.8,32.5,95,29.98,10.0,Calm,Calm,-,N/A,,Clear,0,2012-12-19 11:35:00
6:55 AM,34.0,33.3,97,29.99,10.0,Calm,Calm,-,N/A,,Clear,0,2012-12-19 11:55:00
7:15 AM,33.1,32.5,98,30.00,10.0,Calm,Calm,-,N/A,,Clear,0,2012-12-19 12:15:00
7:35 AM,33.8,32.9,96,30.01,10.0,Calm,Calm,-,N/A,,Clear,0,2012-12-19 12:35:00
7:55 AM,34.0,33.6,99,30.02,10.0,Calm,Calm,-,N/A,,Clear,0,2012-12-19 12:55:00
8:15 AM,36.1,35.1,96,30.03,10.0,Calm,Calm,-,N/A,,Clear,0,2012-12-19 13:15:00
8:35 AM,37.9,36.0,93,30.03,10.0,Calm,Calm,-,N/A,,Clear,0,2012-12-19 13:35:00
8:55 AM,40.8,36.5,85,30.03,10.0,South,3.5,-,N/A,,Clear,190,2012-12-19 13:55:00
9:15 AM,41.9,36.7,82,30.04,10.0,Calm,Calm,-,N/A,,Clear,0,2012-12-19 14:15:00
9:35 AM,43.7,37.6,79,30.05,10.0,SSW,3.5,-,N/A,,Clear,200,2012-12-19 14:35:00
9:55 AM,47.7,34.9,61,30.05,10.0,SW,3.5,-,N/A,,Clear,230,2012-12-19 14:55:00
10:15 AM,50.2,34.9,56,30.05,10.0,SW,3.5,-,N/A,,Clear,220,2012-12-19 15:15:00
10:35 AM,51.8,34.5,52,30.05,10.0,SW,3.5,-,N/A,,Clear,230,2012-12-19 15:35:00
10:55 AM,53.8,35.1,49,30.05,10.0,SW,5.8,-,N/A,,Clear,220,2012-12-19 15:55:00
11:15 AM,55.9,35.4,46,30.05,10.0,SW,4.6,-,N/A,,Clear,230,2012-12-19 16:15:00
11:35 AM,57.7,34.7,42,30.04,10.0,SSW,3.5,-,N/A,,Clear,210,2012-12-19 16:35:00
11:55 AM,60.3,35.1,39,30.02,10.0,SSW,6.9,-,N/A,,Clear,210,2012-12-19 16:55:00
12:15 PM,61.9,34.5,36,30.02,10.0,West,4.6,-,N/A,,Clear,270,2012-12-19 17:15:00
12:35 PM,62.8,34.0,34,30.01,10.0,WSW,3.5,-,N/A,,Clear,240,2012-12-19 17:35:00
12:55 PM,63.0,34.2,34,30.00,10.0,WSW,3.5,-,N/A,,Clear,240,2012-12-19 17:55:00
1:15 PM,64.0,34.5,33,30.00,10.0,WSW,3.5,-,N/A,,Clear,240,2012-12-19 18:15:00
1:35 PM,65.1,34.3,32,30.00,10.0,WSW,5.8,-,N/A,,Clear,240,2012-12-19 18:35:00
1:55 PM,66.6,34.7,31,30.00,10.0,SW,5.8,-,N/A,,Clear,230,2012-12-19 18:55:00
2:15 PM,66.2,34.9,31,30.00,10.0,SW,5.8,-,N/A,,Clear,220,2012-12-19 19:15:00
2:35 PM,66.4,35.1,31,30.00,10.0,WSW,4.6,-,N/A,,Clear,240,2012-12-19 19:35:00
2:55 PM,66.9,33.3,29,30.00,10.0,West,5.8,-,N/A,,Clear,280,2012-12-19 19:55:00
3:15 PM,67.3,33.3,28,30.00,10.0,West,4.6,-,N/A,,Clear,260,2012-12-19 20:15:00
3:35 PM,66.2,34.2,30,30.00,10.0,SSW,4.6,-,N/A,,Clear,210,2012-12-19 20:35:00
3:55 PM,65.5,35.8,33,30.00,10.0,SSW,3.5,-,N/A,,Clear,210,2012-12-19 20:55:00
4:15 PM,64.9,36.3,35,30.01,10.0,Calm,Calm,-,N/A,,Clear,0,2012-12-19 21:15:00
4:35 PM,63.9,36.9,37,30.02,10.0,Calm,Calm,-,N/A,,Clear,0,2012-12-19 21:35:00
4:55 PM,63.0,37.2,38,30.03,10.0,Calm,Calm,-,N/A,,Clear,0,2012-12-19 21:55:00
5:15 PM,59.9,39.0,46,30.03,10.0,Calm,Calm,-,N/A,,Clear,0,2012-12-19 22:15:00
5:35 PM,59.2,38.7,47,30.04,10.0,SW,3.5,-,N/A,,Clear,220,2012-12-19 22:35:00
5:55 PM,57.6,40.3,53,30.05,10.0,Calm,Calm,-,N/A,,Clear,0,2012-12-19 22:55:00
6:15 PM,56.7,40.1,54,30.06,10.0,Calm,Calm,-,N/A,,Clear,0,2012-12-19 23:15:00
6:35 PM,55.9,41.0,57,30.06,10.0,Calm,Calm,-,N/A,,Clear,0,2012-12-19 23:35:00
6:55 PM,53.2,41.0,63,30.07,10.0,Calm,Calm,-,N/A,,Clear,0,2012-12-19 23:55:00
7:15 PM,52.0,40.8,66,30.08,10.0,Calm,Calm,-,N/A,,Clear,0,2012-12-20 00:15:00
7:35 PM,50.4,41.0,70,30.08,10.0,Calm,Calm,-,N/A,,Clear,0,2012-12-20 00:35:00
7:55 PM,50.2,41.2,71,30.09,10.0,Calm,Calm,-,N/A,,Clear,0,2012-12-20 00:55:00
8:15 PM,48.4,41.7,78,30.09,10.0,Calm,Calm,-,N/A,,Clear,0,2012-12-20 01:15:00
8:35 PM,47.8,41.4,78,30.10,10.0,Calm,Calm,-,N/A,,Clear,0,2012-12-20 01:35:00
8:55 PM,47.8,41.2,78,30.10,10.0,Calm,Calm,-,N/A,,Clear,0,2012-12-20 01:55:00
9:15 PM,46.8,41.0,80,30.10,10.0,Calm,Calm,-,N/A,,Clear,0,2012-12-20 02:15:00
9:35 PM,46.4,40.6,80,30.10,10.0,Calm,Calm,-,N/A,,Clear,0,2012-12-20 02:35:00
9:55 PM,45.7,40.6,83,30.11,10.0,Calm,Calm,-,N/A,,Clear,0,2012-12-20 02:55:00
10:15 PM,45.9,40.6,82,30.12,10.0,Calm,Calm,-,N/A,,Clear,0,2012-12-20 03:15:00
10:35 PM,43.0,40.8,92,30.12,10.0,Calm,Calm,-,N/A,,Clear,0,2012-12-20 03:35:00
10:55 PM,43.5,41.9,94,30.12,10.0,Calm,Calm,-,N/A,,Clear,0,2012-12-20 03:55:00
11:15 PM,42.1,40.5,94,30.13,10.0,Calm,Calm,-,N/A,,Clear,0,2012-12-20 04:15:00
11:35 PM,41.7,40.5,95,30.12,10.0,Calm,Calm,-,N/A,,Clear,0,2012-12-20 04:35:00
11:55 PM,42.3,41.0,95,30.12,10.0,Calm,Calm,-,N/A,,Clear,0,2012-12-20 04:55:00